Brook Park, Ohio
Current Conditions -  °F | °C
As of 8:51 AM on Sunday 21 Dec 2014 (Local Time) from KCLE Reporting Station
Overcast Overcast  
Wind Chill: 30°   Ceiling: 2300
Heat Index: 30°   Visibility: 8mi
Dew Point: 21°   Wind: 0mph
Humidity: 69%   Direction: NA
Pressure: 30.34"   Gusts: NA
Location:  41.4°N, 81.82°W
Report Text: KCLE 211351Z 00000KT 8SM OVC023 M01/M06 A3034 RMK AO2 SLP283 T10111061 $
Loading
Personal Weather Stations






























Interactive Weather Map New forecast layout! Learn more

10-Day Weather Forecast

Advertisements
Track Severe Weather on mobile